Time;durP1;ratioP1;P1;durP2;ratioP2;P2;SDS_P1;SDS_P2;PMS_P1;PMS_P2;Temp;Humidity;BMP_temperature;BMP_pressure;BME280_temperature;BME280_humidity;BME280_pressure;Samples;Min_cycle;Max_cycle;Signal;HPM_P1;HPM_P2
2023/10/21 00:01:30;;;;;;;42.60;31.80;;;;;;;13.78;100.00;98429.91;105761;1255;72672;-76
2023/10/21 00:03:58;;;;;;;38.10;30.00;;;;;;;13.84;100.00;98418.10;105812;1254;60077;-77
2023/10/21 00:06:25;;;;;;;36.10;29.10;;;;;;;13.91;100.00;98413.76;105832;1253;59606;-79
2023/10/21 00:08:52;;;;;;;39.00;32.10;;;;;;;13.93;100.00;98417.18;106309;1254;73588;-76
2023/10/21 00:11:20;;;;;;;43.50;32.70;;;;;;;13.95;100.00;98426.27;106409;1255;72158;-78
2023/10/21 00:13:47;;;;;;;40.20;32.00;;;;;;;13.98;100.00;98429.98;106116;1254;72734;-77
2023/10/21 00:16:15;;;;;;;41.60;33.30;;;;;;;14.00;100.00;98442.25;105687;1258;61416;-77
2023/10/21 00:18:43;;;;;;;38.40;31.70;;;;;;;14.02;100.00;98437.69;105656;1256;60173;-77
2023/10/21 00:21:10;;;;;;;36.30;30.70;;;;;;;14.08;100.00;98410.56;105721;1254;73109;-79
2023/10/21 00:23:38;;;;;;;42.50;33.10;;;;;;;14.11;100.00;98429.85;105741;1260;68771;-82
2023/10/21 00:26:06;;;;;;;40.10;30.40;;;;;;;14.10;100.00;98436.09;105744;1254;71390;-78
2023/10/21 00:28:34;;;;;;;40.80;30.70;;;;;;;14.10;100.00;98427.84;105908;1253;60116;-80
2023/10/21 00:31:04;;;;;;;38.40;30.60;;;;;;;14.10;100.00;98412.45;105926;1253;59529;-79
2023/10/21 00:33:32;;;;;;;38.60;32.20;;;;;;;14.05;100.00;98408.35;105808;1258;73050;-77
2023/10/21 00:36:00;;;;;;;34.20;29.90;;;;;;;13.99;100.00;98402.81;105874;1256;69288;-77
2023/10/21 00:38:27;;;;;;;36.70;28.70;;;;;;;13.96;100.00;98402.73;105811;1257;71508;-75
2023/10/21 00:40:56;;;;;;;33.30;29.30;;;;;;;13.91;100.00;98402.23;105978;1256;59809;-77
2023/10/21 00:43:38;;;;;;;32.00;28.50;;;;;;;13.88;100.00;98400.44;105866;1253;59997;-77
2023/10/21 00:46:10;;;;;;;33.60;29.90;;;;;;;13.85;100.00;98408.19;105916;1256;73075;-78
2023/10/21 00:48:38;;;;;;;37.20;28.30;;;;;;;13.83;100.00;98412.45;105819;1253;70419;-78
2023/10/21 00:51:06;;;;;;;34.50;29.30;;;;;;;13.81;100.00;98408.97;105845;1257;71555;-76
2023/10/21 00:53:33;;;;;;;35.30;27.80;;;;;;;13.80;100.00;98408.33;106077;1253;60087;-76
2023/10/21 00:56:01;;;;;;;34.50;28.60;;;;;;;13.80;100.00;98409.92;105990;1253;60123;-75
2023/10/21 00:58:32;;;;;;;32.50;27.60;;;;;;;13.81;100.00;98415.51;105890;1253;70831;-75
2023/10/21 01:01:01;;;;;;;35.80;27.20;;;;;;;13.84;100.00;98407.17;105806;1254;69566;-75
2023/10/21 01:03:29;;;;;;;33.90;28.50;;;;;;;13.87;100.00;98412.56;105872;1253;72642;-78
2023/10/21 01:05:58;;;;;;;31.40;27.90;;;;;;;13.88;100.00;98420.52;105926;1256;59728;-76
2023/10/21 01:08:25;;;;;;;32.70;27.00;;;;;;;13.91;100.00;98419.63;105860;1253;59600;-76
2023/10/21 01:10:53;;;;;;;34.80;27.80;;;;;;;13.97;100.00;98418.25;105821;1253;71577;-75
2023/10/21 01:13:21;;;;;;;30.90;27.20;;;;;;;14.00;100.00;98421.29;105878;1257;69633;-77
2023/10/21 01:15:48;;;;;;;31.40;26.80;;;;;;;14.03;100.00;98424.30;106271;1254;71103;-75
2023/10/21 01:18:16;;;;;;;29.20;25.30;;;;;;;14.05;100.00;98424.15;105961;1253;60581;-76
2023/10/21 01:20:43;;;;;;;30.30;25.30;;;;;;;14.06;100.00;98435.73;106470;1253;59711;-78
2023/10/21 01:23:15;;;;;;;29.50;25.50;;;;;;;14.08;100.00;98442.08;105944;1253;73318;-78
2023/10/21 01:25:43;;;;;;;29.50;24.80;;;;;;;14.08;100.00;98439.93;105582;1260;69180;-76
2023/10/21 01:28:12;;;;;;;31.20;25.30;;;;;;;14.07;100.00;98440.40;105772;1253;71160;-77
2023/10/21 01:30:39;;;;;;;28.20;24.30;;;;;;;14.06;100.00;98443.70;105783;1260;59590;-76
2023/10/21 01:33:07;;;;;;;33.90;25.60;;;;;;;14.06;100.00;98449.24;105868;1253;59684;-75
2023/10/21 01:35:34;;;;;;;28.50;25.10;;;;;;;14.07;100.00;98452.84;105848;1253;71825;-73
2023/10/21 01:38:02;;;;;;;28.80;25.10;;;;;;;14.09;100.00;98450.80;105853;1253;69118;-75
2023/10/21 01:40:29;;;;;;;29.90;24.60;;;;;;;14.12;100.00;98445.52;105774;1258;71389;-76
2023/10/21 01:42:57;;;;;;;29.40;24.80;;;;;;;14.15;100.00;98443.89;105669;1253;59630;-77
2023/10/21 01:45:24;;;;;;;31.10;25.90;;;;;;;14.15;100.00;98447.98;105855;1257;60201;-74
2023/10/21 01:47:52;;;;;;;27.30;24.10;;;;;;;14.14;100.00;98455.09;105798;1255;72990;-76
2023/10/21 01:50:19;;;;;;;32.60;26.80;;;;;;;14.16;100.00;98459.45;105874;1253;70092;-76
2023/10/21 01:52:47;;;;;;;34.30;27.10;;;;;;;14.20;100.00;98462.65;105758;1256;71639;-77
2023/10/21 01:55:15;;;;;;;29.90;25.00;;;;;;;14.23;100.00;98458.69;105637;1253;59752;-78
2023/10/21 01:57:42;;;;;;;32.00;26.60;;;;;;;14.24;100.00;98460.85;105798;1259;59740;-75
2023/10/21 02:00:10;;;;;;;32.80;27.90;;;;;;;14.22;100.00;98459.45;105738;1253;73106;-77
2023/10/21 02:02:40;;;;;;;33.90;29.80;;;;;;;14.17;100.00;98456.27;105924;1253;68963;-75
2023/10/21 02:05:08;;;;;;;37.10;29.60;;;;;;;14.17;100.00;98458.52;105844;1258;71371;-76
2023/10/21 02:07:36;;;;;;;32.50;27.80;;;;;;;14.21;100.00;98463.91;105888;1257;59621;-76
2023/10/21 02:10:05;;;;;;;35.60;27.80;;;;;;;14.25;100.00;98467.30;105764;1253;61686;-76
2023/10/21 02:12:32;;;;;;;37.90;27.30;;;;;;;14.29;100.00;98467.43;105834;1254;71032;-77
2023/10/21 02:15:01;;;;;;;40.60;28.10;;;;;;;14.33;100.00;98460.31;105899;1253;71244;-74
2023/10/21 02:17:29;;;;;;;35.60;26.30;;;;;;;14.33;100.00;98463.15;105925;1255;72839;-75
2023/10/21 02:19:57;;;;;;;32.80;23.10;;;;;;;14.31;100.00;98466.83;105776;1256;60053;-75
2023/10/21 02:22:24;;;;;;;28.70;23.20;;;;;;;14.26;100.00;98469.31;106032;1258;60579;-75
2023/10/21 02:24:55;;;;;;;32.90;22.80;;;;;;;14.21;100.00;98478.09;105726;1260;73033;-75
2023/10/21 02:27:23;;;;;;;27.90;22.10;;;;;;;14.18;100.00;98479.61;105616;1253;69963;-75
2023/10/21 02:29:50;;;;;;;23.10;17.70;;;;;;;14.18;100.00;98472.98;105797;1253;72729;-77
2023/10/21 02:32:18;;;;;;;35.60;19.60;;;;;;;14.15;99.97;98473.10;105763;1253;59748;-76
2023/10/21 02:34:45;;;;;;;33.00;18.30;;;;;;;14.09;99.64;98474.02;105723;1253;59705;-78
2023/10/21 02:37:13;;;;;;;28.80;18.30;;;;;;;14.04;99.50;98470.75;105771;1258;73134;-79
2023/10/21 02:39:40;;;;;;;29.80;17.10;;;;;;;13.99;99.40;98473.64;106170;1259;69198;-76
2023/10/21 02:42:08;;;;;;;33.90;16.90;;;;;;;13.96;99.39;98478.27;106138;1256;72696;-76
2023/10/21 02:44:35;;;;;;;26.30;17.90;;;;;;;13.92;99.71;98484.17;106303;1253;60351;-77
2023/10/21 02:47:03;;;;;;;28.50;18.00;;;;;;;13.92;99.38;98486.77;105743;1253;59704;-77
2023/10/21 02:49:31;;;;;;;35.90;18.90;;;;;;;13.89;99.03;98492.09;105807;1253;72844;-76
2023/10/21 02:51:58;;;;;;;24.70;17.70;;;;;;;13.87;99.02;98498.27;107054;1254;70166;-78
2023/10/21 02:54:26;;;;;;;28.50;16.70;;;;;;;13.85;98.84;98503.20;106202;1253;72439;-77
2023/10/21 02:56:53;;;;;;;29.90;18.40;;;;;;;13.79;99.08;98501.23;105939;1253;60611;-76
2023/10/21 02:59:21;;;;;;;32.70;14.70;;;;;;;13.79;99.26;98496.30;105926;1253;60431;-79
2023/10/21 03:01:48;;;;;;;40.40;16.80;;;;;;;13.79;99.47;98494.74;105851;1253;72643;-78
2023/10/21 03:04:16;;;;;;;24.40;16.30;;;;;;;13.72;99.77;98491.52;105842;1253;69993;-79
2023/10/21 03:06:43;;;;;;;24.80;16.00;;;;;;;13.69;99.61;98491.36;105736;1253;72646;-77
2023/10/21 03:09:11;;;;;;;30.90;16.10;;;;;;;13.69;99.15;98495.03;105788;1255;60451;-80
2023/10/21 03:11:39;;;;;;;28.30;15.80;;;;;;;13.61;98.98;98500.27;105687;1253;60658;-76
2023/10/21 03:14:07;;;;;;;29.90;16.00;;;;;;;13.60;99.35;98511.02;105941;1253;73778;-75
2023/10/21 03:16:34;;;;;;;19.80;15.10;;;;;;;13.60;99.77;98511.97;105889;1258;69105;-77
2023/10/21 03:19:04;;;;;;;27.70;15.90;;;;;;;13.64;99.91;98512.22;105903;1253;72703;-77
2023/10/21 03:21:31;;;;;;;24.40;14.40;;;;;;;13.64;99.98;98512.54;105868;1253;60423;-78
2023/10/21 03:23:58;;;;;;;32.40;14.50;;;;;;;13.66;100.00;98522.37;106480;1253;60508;-76
2023/10/21 03:26:26;;;;;;;22.00;15.10;;;;;;;13.63;100.00;98527.71;106716;1258;74614;-80
2023/10/21 03:28:53;;;;;;;23.60;14.00;;;;;;;13.62;99.84;98532.48;106980;1257;69362;-79
2023/10/21 03:31:21;;;;;;;32.10;14.10;;;;;;;13.64;99.73;98531.70;105872;1253;72581;-76
2023/10/21 03:33:48;;;;;;;32.70;14.50;;;;;;;13.61;99.92;98537.00;105936;1254;60352;-77
2023/10/21 03:36:16;;;;;;;23.40;13.10;;;;;;;13.62;99.99;98533.77;105903;1253;60546;-79
2023/10/21 03:38:43;;;;;;;42.60;13.80;;;;;;;13.64;99.87;98529.51;105933;1253;72258;-79
2023/10/21 03:41:11;;;;;;;26.30;13.60;;;;;;;13.58;99.76;98532.43;105665;1260;68935;-79
2023/10/21 03:43:39;;;;;;;25.70;12.50;;;;;;;13.57;99.96;98554.64;105856;1254;72646;-75
2023/10/21 03:46:07;;;;;;;27.70;12.60;;;;;;;13.59;99.80;98558.91;105805;1253;60454;-78
2023/10/21 03:48:35;;;;;;;21.60;12.70;;;;;;;13.59;99.87;98550.73;105814;1253;60447;-77
2023/10/21 03:51:04;;;;;;;20.10;11.90;;;;;;;13.61;99.88;98545.46;105990;1253;72971;-78
2023/10/21 03:53:33;;;;;;;23.30;13.10;;;;;;;13.61;99.44;98545.83;105789;1253;68581;-77
2023/10/21 03:56:00;;;;;;;20.80;12.30;;;;;;;13.52;99.33;98551.15;105801;1253;71359;-80
2023/10/21 03:58:29;;;;;;;32.50;14.50;;;;;;;13.48;99.16;98556.14;105854;1254;60547;-79
2023/10/21 04:00:59;;;;;;;33.10;14.00;;;;;;;13.47;99.19;98558.79;105886;1258;60506;-77
2023/10/21 04:03:27;;;;;;;26.40;12.30;;;;;;;13.43;99.73;98558.64;105944;1256;72998;-78
2023/10/21 04:05:55;;;;;;;22.80;11.90;;;;;;;13.42;99.51;98563.56;105955;1256;67845;-78
2023/10/21 04:08:23;;;;;;;24.90;12.20;;;;;;;13.41;99.30;98563.29;105890;1253;71396;-78
2023/10/21 04:10:52;;;;;;;21.00;11.60;;;;;;;13.36;99.35;98568.98;106106;1253;60569;-77
2023/10/21 04:13:20;;;;;;;15.60;10.40;;;;;;;13.35;99.41;98566.13;106721;1253;60424;-80
2023/10/21 04:15:47;;;;;;;28.90;10.70;;;;;;;13.37;99.22;98561.43;106796;1252;71835;-80
2023/10/21 04:18:17;;;;;;;18.80;10.60;;;;;;;13.31;99.33;98557.93;106372;1254;69186;-79
2023/10/21 04:20:45;;;;;;;21.10;10.70;;;;;;;13.27;99.27;98553.34;106014;1258;71838;-76
2023/10/21 04:23:13;;;;;;;21.30;13.00;;;;;;;13.25;99.05;98559.34;106318;1252;60467;-76
2023/10/21 04:25:41;;;;;;;21.10;12.00;;;;;;;13.18;99.07;98560.28;107131;1258;60410;-78
2023/10/21 04:28:08;;;;;;;22.30;12.80;;;;;;;13.17;99.06;98554.14;106238;1258;73823;-77
2023/10/21 04:30:36;;;;;;;23.60;10.80;;;;;;;13.16;99.05;98552.30;106261;1258;68946;-75
2023/10/21 04:33:04;;;;;;;14.90;9.30;;;;;;;13.09;99.04;98556.14;106545;1253;72783;-78
2023/10/21 04:35:32;;;;;;;13.10;9.30;;;;;;;13.05;98.75;98566.71;106160;1253;60776;-78
2023/10/21 04:38:00;;;;;;;23.90;11.10;;;;;;;13.01;98.97;98570.66;105900;1258;60430;-75
2023/10/21 04:40:27;;;;;;;19.50;11.10;;;;;;;12.89;99.41;98577.61;105870;1254;74189;-75
2023/10/21 04:42:55;;;;;;;19.40;12.10;;;;;;;12.82;99.22;98582.89;105942;1259;69325;-82
2023/10/21 04:45:23;;;;;;;21.40;11.70;;;;;;;12.78;99.39;98586.75;105830;1253;72441;-77
2023/10/21 04:47:53;;;;;;;26.70;10.50;;;;;;;12.75;99.85;98587.92;105789;1253;60682;-80
2023/10/21 04:50:20;;;;;;;24.40;10.40;;;;;;;12.67;99.87;98591.67;105858;1253;60595;-77
2023/10/21 04:52:48;;;;;;;21.50;10.40;;;;;;;12.63;99.82;98595.89;105645;1253;74317;-78
2023/10/21 04:55:15;;;;;;;20.50;11.00;;;;;;;12.59;99.93;98602.73;106016;1253;69965;-78
2023/10/21 04:57:43;;;;;;;20.40;9.90;;;;;;;12.52;100.00;98602.40;105975;1256;72647;-80
2023/10/21 05:00:11;;;;;;;17.10;10.40;;;;;;;12.53;100.00;98610.39;105737;1258;60437;-78
2023/10/21 05:02:38;;;;;;;25.80;10.80;;;;;;;12.54;100.00;98617.67;105841;1257;60453;-78
2023/10/21 05:05:06;;;;;;;21.80;10.50;;;;;;;12.49;100.00;98621.67;105862;1253;72992;-77
2023/10/21 05:07:33;;;;;;;22.30;9.10;;;;;;;12.49;100.00;98626.19;105820;1253;70332;-77
2023/10/21 05:10:01;;;;;;;22.40;10.40;;;;;;;12.49;100.00;98631.23;106135;1257;71671;-77
2023/10/21 05:12:28;;;;;;;19.00;10.30;;;;;;;12.39;100.00;98637.50;106159;1253;60410;-77
2023/10/21 05:14:56;;;;;;;17.90;9.30;;;;;;;12.35;100.00;98643.95;106430;1253;60532;-78
2023/10/21 05:17:23;;;;;;;22.70;10.60;;;;;;;12.37;100.00;98651.85;105996;1256;72549;-80
2023/10/21 05:19:51;;;;;;;14.10;10.70;;;;;;;12.34;100.00;98650.18;105947;1253;70012;-77
2023/10/21 05:22:18;;;;;;;16.50;8.80;;;;;;;12.25;100.00;98661.23;105849;1256;71928;-76
2023/10/21 05:24:46;;;;;;;17.20;9.10;;;;;;;12.20;100.00;98671.32;105868;1253;61870;-77
2023/10/21 05:27:13;;;;;;;14.00;8.10;;;;;;;12.18;100.00;98677.30;105990;1257;60472;-76
2023/10/21 05:29:41;;;;;;;13.00;8.10;;;;;;;12.15;100.00;98678.81;105968;1259;72628;-77
2023/10/21 05:32:08;;;;;;;10.10;7.30;;;;;;;12.10;100.00;98677.91;105656;1260;69032;-76
2023/10/21 05:34:36;;;;;;;9.80;7.40;;;;;;;12.08;100.00;98678.20;106041;1259;72685;-77
2023/10/21 05:37:03;;;;;;;9.10;6.90;;;;;;;12.10;100.00;98678.64;106036;1256;60422;-80
2023/10/21 05:39:31;;;;;;;7.90;7.10;;;;;;;12.08;100.00;98680.89;106108;1253;60477;-79
2023/10/21 05:41:58;;;;;;;15.60;6.10;;;;;;;12.02;100.00;98685.27;105941;1256;74796;-77
2023/10/21 05:44:26;;;;;;;13.30;5.90;;;;;;;11.96;100.00;98690.63;105797;1253;69558;-75
2023/10/21 05:47:14;;;;;;;13.30;6.00;;;;;;;11.95;100.00;98691.28;105847;1253;71398;-74
2023/10/21 05:49:41;;;;;;;16.20;6.30;;;;;;;11.92;100.00;98701.48;105846;1253;60447;-74
2023/10/21 05:52:09;;;;;;;10.00;6.70;;;;;;;11.85;100.00;98713.92;105797;1252;60420;-76
2023/10/21 05:54:36;;;;;;;13.60;5.60;;;;;;;11.78;100.00;98720.73;106004;1253;72669;-77
2023/10/21 05:57:05;;;;;;;10.80;6.00;;;;;;;11.78;100.00;98723.10;106074;1257;69037;-76
2023/10/21 05:59:32;;;;;;;11.60;6.40;;;;;;;11.76;100.00;98730.96;106104;1254;71406;-76
2023/10/21 06:02:01;;;;;;;10.70;5.80;;;;;;;11.70;100.00;98734.27;105940;1257;60460;-76
2023/10/21 06:04:28;;;;;;;9.80;5.60;;;;;;;11.63;100.00;98730.05;105785;1253;60480;-76
2023/10/21 06:06:56;;;;;;;7.30;5.10;;;;;;;11.65;100.00;98730.34;105909;1253;73996;-77
2023/10/21 06:09:23;;;;;;;13.70;6.20;;;;;;;11.66;100.00;98735.76;105843;1253;70028;-76
2023/10/21 06:11:52;;;;;;;11.30;6.50;;;;;;;11.60;100.00;98739.06;105975;1253;70562;-76
2023/10/21 06:14:19;;;;;;;9.50;6.30;;;;;;;11.56;100.00;98750.91;105901;1256;61731;-77
2023/10/21 06:16:47;;;;;;;7.80;6.20;;;;;;;11.60;100.00;98752.41;105776;1259;60518;-76
2023/10/21 06:19:16;;;;;;;15.30;7.30;;;;;;;11.62;100.00;98755.14;106031;1253;73802;-78
2023/10/21 06:21:44;;;;;;;14.20;7.10;;;;;;;11.59;100.00;98753.42;105987;1256;69082;-78
2023/10/21 06:24:12;;;;;;;11.20;7.60;;;;;;;11.58;100.00;98756.90;105876;1258;72725;-77
2023/10/21 06:26:40;;;;;;;10.30;6.70;;;;;;;11.62;100.00;98760.10;105940;1253;61563;-75
2023/10/21 06:29:08;;;;;;;9.40;6.30;;;;;;;11.65;100.00;98761.90;106029;1253;60537;-79
2023/10/21 06:31:36;;;;;;;8.40;6.80;;;;;;;11.61;100.00;98771.10;106044;1253;73767;-77
2023/10/21 06:34:04;;;;;;;7.70;5.50;;;;;;;11.60;100.00;98780.71;106034;1256;69922;-77
2023/10/21 06:36:31;;;;;;;10.10;6.50;;;;;;;11.66;100.00;98782.21;105897;1259;71393;-76
2023/10/21 06:38:59;;;;;;;10.70;6.00;;;;;;;11.64;100.00;98787.77;106006;1253;60470;-77
2023/10/21 06:41:27;;;;;;;11.50;4.70;;;;;;;11.64;100.00;98790.23;106253;1253;60322;-78
2023/10/21 06:43:54;;;;;;;15.30;6.70;;;;;;;11.68;100.00;98792.86;105881;1257;74448;-74
2023/10/21 06:46:22;;;;;;;10.30;6.00;;;;;;;11.68;100.00;98794.09;105906;1253;70663;-75
2023/10/21 06:48:49;;;;;;;16.30;5.10;;;;;;;11.68;100.00;98792.21;105856;1256;72487;-73
2023/10/21 06:51:17;;;;;;;7.60;5.20;;;;;;;11.72;100.00;98794.50;105872;1253;63935;-75
2023/10/21 06:53:45;;;;;;;12.70;6.30;;;;;;;11.72;100.00;98793.25;105734;1258;60352;-76
2023/10/21 06:56:12;;;;;;;13.70;5.90;;;;;;;11.68;100.00;98794.70;105686;1253;72920;-75
2023/10/21 06:58:40;;;;;;;9.40;5.50;;;;;;;11.65;100.00;98801.77;105945;1256;70631;-76
2023/10/21 07:01:08;;;;;;;6.80;5.80;;;;;;;11.68;100.00;98807.39;105914;1258;71531;-77
2023/10/21 07:03:36;;;;;;;8.30;5.70;;;;;;;11.71;100.00;98806.63;106034;1256;60380;-75
2023/10/21 07:06:05;;;;;;;12.80;5.80;;;;;;;11.70;100.00;98816.05;105816;1253;60503;-76
2023/10/21 07:08:35;;;;;;;10.70;6.30;;;;;;;11.68;100.00;98811.12;105979;1256;73918;-78
2023/10/21 07:11:03;;;;;;;9.40;5.30;;;;;;;11.71;100.00;98802.36;106644;1253;70320;-79
2023/10/21 07:13:30;;;;;;;9.20;4.80;;;;;;;11.76;100.00;98801.24;107690;1254;71198;-76
2023/10/21 07:16:10;;;;;;;9.30;5.40;;;;;;;11.74;100.00;98802.71;107524;1253;60429;-76
2023/10/21 07:18:38;;;;;;;11.70;5.00;;;;;;;11.68;100.00;98810.67;106126;1253;60536;-75
2023/10/21 07:21:07;;;;;;;9.50;6.00;;;;;;;11.69;100.00;98821.88;106119;1253;73346;-77
2023/10/21 07:23:37;;;;;;;6.20;5.40;;;;;;;11.71;100.00;98836.18;106107;1259;69077;-78
2023/10/21 07:26:05;;;;;;;12.00;4.90;;;;;;;11.68;100.00;98852.84;107082;1256;70889;-78
2023/10/21 07:28:33;;;;;;;7.70;4.90;;;;;;;11.67;100.00;98862.95;106288;1253;61674;-78
2023/10/21 07:31:01;;;;;;;6.90;4.80;;;;;;;11.68;100.00;98866.02;106165;1256;60419;-78
2023/10/21 07:33:28;;;;;;;8.50;6.10;;;;;;;11.64;100.00;98868.36;105970;1253;74342;-76
2023/10/21 07:35:56;;;;;;;8.50;5.80;;;;;;;11.56;100.00;98863.44;105902;1259;69186;-78
2023/10/21 07:38:24;;;;;;;8.30;5.50;;;;;;;11.48;100.00;98855.14;106083;1258;71378;-77
2023/10/21 07:40:51;;;;;;;8.70;4.80;;;;;;;11.50;100.00;98854.09;106041;1254;60732;-77
2023/10/21 07:43:18;;;;;;;9.50;5.10;;;;;;;11.50;100.00;98857.73;106193;1256;59112;-77
2023/10/21 07:45:46;;;;;;;8.20;5.10;;;;;;;11.46;100.00;98858.19;105947;1259;73820;-79
2023/10/21 07:48:14;;;;;;;8.00;5.10;;;;;;;11.40;100.00;98859.55;106080;1258;69467;-79
2023/10/21 07:50:42;;;;;;;7.50;4.30;;;;;;;11.40;100.00;98861.67;105993;1256;71421;-76
2023/10/21 07:53:09;;;;;;;9.30;5.70;;;;;;;11.36;100.00;98867.83;105918;1253;60483;-76
2023/10/21 07:55:37;;;;;;;7.20;4.80;;;;;;;11.29;100.00;98875.92;105683;1258;60452;-75
2023/10/21 07:58:04;;;;;;;6.10;5.10;;;;;;;11.26;100.00;98877.45;105699;1259;71352;-73
2023/10/21 08:00:32;;;;;;;7.90;5.20;;;;;;;11.30;100.00;98889.18;105872;1253;69918;-77
2023/10/21 08:02:59;;;;;;;11.60;5.80;;;;;;;11.32;100.00;98902.80;105914;1256;72758;-75
2023/10/21 08:05:28;;;;;;;9.00;6.10;;;;;;;11.31;100.00;98910.25;105996;1259;60426;-75
2023/10/21 08:07:56;;;;;;;11.40;5.90;;;;;;;11.31;100.00;98914.45;106084;1258;62115;-75
2023/10/21 08:10:23;;;;;;;9.70;5.50;;;;;;;11.34;100.00;98923.36;105964;1253;73905;-76
2023/10/21 08:12:51;;;;;;;7.30;5.40;;;;;;;11.36;100.00;98924.20;106004;1253;70106;-74
2023/10/21 08:15:18;;;;;;;6.60;5.70;;;;;;;11.31;100.00;98927.41;106033;1254;72981;-78
2023/10/21 08:17:46;;;;;;;9.30;5.50;;;;;;;11.30;100.00;98937.98;105993;1258;61800;-78
2023/10/21 08:20:13;;;;;;;9.30;5.40;;;;;;;11.38;100.00;98937.18;106063;1253;60522;-75
2023/10/21 08:22:40;;;;;;;9.90;5.90;;;;;;;11.46;100.00;98934.21;106060;1256;73785;-77
2023/10/21 08:25:08;;;;;;;8.00;5.70;;;;;;;11.45;100.00;98932.58;106095;1256;70187;-77
2023/10/21 08:27:38;;;;;;;8.50;5.80;;;;;;;11.43;100.00;98929.41;106119;1253;71605;-77
2023/10/21 08:30:10;;;;;;;8.20;6.40;;;;;;;11.52;100.00;98928.85;106378;1253;61661;-77
2023/10/21 08:32:38;;;;;;;9.00;6.60;;;;;;;11.60;100.00;98930.09;106028;1253;60517;-76
2023/10/21 08:35:05;;;;;;;10.30;7.00;;;;;;;11.65;100.00;98934.66;106399;1254;73877;-77
2023/10/21 08:37:33;;;;;;;8.60;6.30;;;;;;;11.70;100.00;98942.35;106069;1256;69426;-74
2023/10/21 08:40:07;;;;;;;6.60;5.90;;;;;;;11.77;100.00;98957.95;106001;1254;72717;-77
2023/10/21 08:42:35;;;;;;;16.70;6.80;;;;;;;11.80;100.00;98964.11;106142;1253;60433;-75
2023/10/21 08:45:23;;;;;;;8.10;5.70;;;;;;;11.76;100.00;98965.64;106741;1256;60478;-77
2023/10/21 08:47:50;;;;;;;7.30;5.20;;;;;;;11.75;100.00;98971.73;105959;1259;73734;-77
2023/10/21 08:50:19;;;;;;;8.30;5.50;;;;;;;11.75;100.00;98972.69;106264;1255;72883;-75
2023/10/21 08:52:48;;;;;;;7.70;5.80;;;;;;;11.73;100.00;98969.96;106849;1256;71481;-78
2023/10/21 08:55:15;;;;;;;9.40;6.00;;;;;;;11.67;100.00;98971.80;106505;1253;60487;-79
2023/10/21 08:57:43;;;;;;;6.40;5.40;;;;;;;11.64;100.00;98963.80;106436;1258;60475;-79
2023/10/21 09:00:11;;;;;;;7.60;5.10;;;;;;;11.67;100.00;98965.22;106540;1253;72638;-76
2023/10/21 09:02:38;;;;;;;8.90;6.20;;;;;;;11.68;100.00;98967.19;106582;1253;69982;-77
2023/10/21 09:05:11;;;;;;;8.00;6.40;;;;;;;11.63;100.00;98967.27;106278;1253;72431;-76
2023/10/21 09:07:45;;;;;;;7.60;5.80;;;;;;;11.60;100.00;98975.52;106190;1257;61719;-79
2023/10/21 09:10:14;;;;;;;9.50;5.80;;;;;;;11.63;100.00;98979.55;106391;1254;60418;-77
2023/10/21 09:12:41;;;;;;;9.20;6.60;;;;;;;11.66;100.00;98980.45;106355;1254;74836;-75
2023/10/21 09:15:09;;;;;;;8.50;6.20;;;;;;;11.61;100.00;98982.77;106696;1258;69246;-77
2023/10/21 09:17:52;;;;;;;8.20;6.20;;;;;;;11.57;100.00;98981.30;106544;1253;72690;-78
2023/10/21 09:20:21;;;;;;;6.60;5.60;;;;;;;11.59;99.86;98982.92;106334;1257;60549;-78
2023/10/21 09:22:49;;;;;;;9.40;6.00;;;;;;;11.55;99.64;98986.70;106252;1254;60456;-75
2023/10/21 09:25:18;;;;;;;10.10;6.20;;;;;;;11.48;99.96;98987.70;106187;1253;72545;-77
2023/10/21 09:27:53;;;;;;;10.00;6.60;;;;;;;11.41;100.00;98991.91;106231;1257;70152;-75
2023/10/21 09:30:25;;;;;;;9.20;6.50;;;;;;;11.40;99.99;98990.89;106259;1253;71453;-78
2023/10/21 09:33:07;;;;;;;7.60;6.00;;;;;;;11.44;100.00;98999.59;105857;1258;60435;-79
2023/10/21 09:35:36;;;;;;;11.70;7.10;;;;;;;11.40;100.00;99005.65;106206;1256;61974;-77
2023/10/21 09:38:18;;;;;;;10.20;7.00;;;;;;;11.42;100.00;99009.31;106108;1257;73040;-78
2023/10/21 09:40:45;;;;;;;10.00;6.40;;;;;;;11.47;100.00;99011.52;106162;1259;70483;-78
2023/10/21 09:43:13;;;;;;;9.40;7.80;;;;;;;11.50;100.00;99007.98;105991;1255;71254;-79
2023/10/21 09:45:42;;;;;;;11.30;7.90;;;;;;;11.49;100.00;99005.31;106379;1252;60541;-77
2023/10/21 09:48:11;;;;;;;9.30;7.00;;;;;;;11.47;99.80;99006.35;106576;1253;62404;-76
2023/10/21 09:50:53;;;;;;;12.20;7.90;;;;;;;11.50;99.90;99008.80;106370;1258;73901;-76
2023/10/21 09:53:24;;;;;;;9.10;7.40;;;;;;;11.55;100.00;99010.88;106311;1258;69760;-79
2023/10/21 09:55:51;;;;;;;10.00;8.10;;;;;;;11.54;100.00;99016.33;106307;1253;71051;-77
2023/10/21 09:58:19;;;;;;;7.70;6.00;;;;;;;11.55;100.00;99018.98;106239;1254;61691;-80
2023/10/21 10:00:47;;;;;;;8.20;7.10;;;;;;;11.56;100.00;99020.88;106250;1260;60339;-77
2023/10/21 10:03:15;;;;;;;8.80;7.60;;;;;;;11.47;100.00;99025.35;106254;1253;74329;-75
2023/10/21 10:05:44;;;;;;;8.50;7.00;;;;;;;11.38;100.00;99032.95;106252;1256;70228;-76
2023/10/21 10:08:12;;;;;;;10.20;7.10;;;;;;;11.38;100.00;99035.78;106351;1259;72682;-76
2023/10/21 10:10:40;;;;;;;11.60;7.40;;;;;;;11.37;100.00;99035.14;106322;1258;60527;-77
2023/10/21 10:13:14;;;;;;;10.40;7.80;;;;;;;11.25;99.77;99044.94;106341;1254;60477;-76
2023/10/21 10:15:42;;;;;;;10.50;6.60;;;;;;;11.23;99.91;99056.95;106289;1259;72899;-78
2023/10/21 10:18:19;;;;;;;10.70;7.90;;;;;;;11.21;99.99;99064.94;106092;1259;71459;-77
2023/10/21 10:20:52;;;;;;;12.00;6.90;;;;;;;11.17;100.00;99067.27;106366;1257;71516;-77
2023/10/21 10:23:22;;;;;;;11.20;7.40;;;;;;;11.19;99.95;99065.48;106273;1256;61706;-73
2023/10/21 10:25:51;;;;;;;11.80;7.40;;;;;;;11.18;99.79;99063.89;107668;1253;60451;-75
2023/10/21 10:28:27;;;;;;;9.70;6.40;;;;;;;11.10;99.86;99071.54;109417;1253;72034;-76
2023/10/21 10:30:56;;;;;;;10.80;7.10;;;;;;;11.10;99.70;99075.30;106840;1254;69585;-77
2023/10/21 10:33:27;;;;;;;9.90;7.20;;;;;;;11.08;99.84;99079.31;106822;1259;72703;-78
2023/10/21 10:35:56;;;;;;;8.90;6.70;;;;;;;11.02;99.95;99085.80;106554;1255;61737;-74
2023/10/21 10:38:36;;;;;;;9.50;6.50;;;;;;;11.03;99.70;99093.90;108197;1254;60361;-75
2023/10/21 10:41:10;;;;;;;9.40;6.30;;;;;;;11.03;99.97;99099.75;109304;1254;72671;-75
2023/10/21 10:43:41;;;;;;;;;;;;;;;10.95;100.00;99098.95;109166;1254;69532;-74
2023/10/21 10:46:09;;;;;;;8.10;6.00;;;;;;;10.95;99.92;99106.66;109221;1254;71431;-75
2023/10/21 10:48:39;;;;;;;10.10;6.40;;;;;;;10.98;99.88;99108.88;109190;1254;58931;-76
2023/10/21 10:51:12;;;;;;;9.90;6.10;;;;;;;10.93;99.88;99106.05;109426;1253;58764;-76
2023/10/21 10:53:40;;;;;;;9.50;6.40;;;;;;;10.94;99.78;99099.53;109512;1253;72389;-75
2023/10/21 10:56:14;;;;;;;9.50;5.60;;;;;;;10.95;99.94;99095.70;109431;1254;69205;-76
2023/10/21 10:58:48;;;;;;;12.90;6.30;;;;;;;10.92;100.00;99097.20;109367;1253;71218;-74
2023/10/21 11:01:28;;;;;;;9.50;5.90;;;;;;;10.96;100.00;99104.66;109189;1254;396923;-76
2023/10/21 11:05:28;;;;;;;9.90;6.60;;;;;;;10.95;100.00;99107.09;105773;1291;599491;-73
2023/10/21 11:07:56;;;;;;;9.90;6.70;;;;;;;10.90;100.00;99114.63;108395;1266;60458;-76
2023/10/21 11:10:24;;;;;;;10.20;6.80;;;;;;;10.97;100.00;99111.58;108435;1266;61710;-77
2023/10/21 11:12:52;;;;;;;10.20;7.10;;;;;;;11.04;100.00;99116.04;108544;1267;70830;-76
2023/10/21 11:15:20;;;;;;;9.70;6.90;;;;;;;11.01;100.00;99121.93;108594;1266;68908;-76
2023/10/21 11:17:47;;;;;;;11.10;6.60;;;;;;;10.96;99.82;99132.09;109051;1257;70835;-75